sensor_id;sensor_type;location;lat;lon;timestamp;P1;durP1;ratioP1;P2;durP2;ratioP2
72584;SDS011;60618;40.084;32.908;2022-07-05T00:01:33;8.63;;;5.00;;
72584;SDS011;60618;40.084;32.908;2022-07-05T00:04:00;9.93;;;5.67;;
72584;SDS011;60618;40.084;32.908;2022-07-05T00:06:27;8.23;;;5.07;;
72584;SDS011;60618;40.084;32.908;2022-07-05T00:08:54;9.65;;;5.00;;
72584;SDS011;60618;40.084;32.908;2022-07-05T00:11:21;7.57;;;5.30;;
72584;SDS011;60618;40.084;32.908;2022-07-05T00:13:48;8.80;;;5.32;;
72584;SDS011;60618;40.084;32.908;2022-07-05T00:16:15;9.23;;;5.13;;
72584;SDS011;60618;40.084;32.908;2022-07-05T00:18:42;8.50;;;5.20;;
72584;SDS011;60618;40.084;32.908;2022-07-05T00:21:09;8.88;;;5.22;;
72584;SDS011;60618;40.084;32.908;2022-07-05T00:23:36;8.60;;;4.90;;
72584;SDS011;60618;40.084;32.908;2022-07-05T00:26:03;9.85;;;5.13;;
72584;SDS011;60618;40.084;32.908;2022-07-05T00:28:30;7.57;;;5.17;;
72584;SDS011;60618;40.084;32.908;2022-07-05T00:30:57;6.88;;;4.60;;
72584;SDS011;60618;40.084;32.908;2022-07-05T00:33:23;9.20;;;4.95;;
72584;SDS011;60618;40.084;32.908;2022-07-05T00:35:50;10.00;;;5.15;;
72584;SDS011;60618;40.084;32.908;2022-07-05T00:38:17;8.38;;;5.00;;
72584;SDS011;60618;40.084;32.908;2022-07-05T00:40:44;10.63;;;5.70;;
72584;SDS011;60618;40.084;32.908;2022-07-05T00:43:11;8.25;;;4.85;;
72584;SDS011;60618;40.084;32.908;2022-07-05T00:45:38;7.57;;;4.93;;
72584;SDS011;60618;40.084;32.908;2022-07-05T00:48:05;7.72;;;5.05;;
72584;SDS011;60618;40.084;32.908;2022-07-05T00:50:33;8.90;;;5.35;;
72584;SDS011;60618;40.084;32.908;2022-07-05T00:53:00;8.27;;;5.60;;
72584;SDS011;60618;40.084;32.908;2022-07-05T00:55:27;8.07;;;4.60;;
72584;SDS011;60618;40.084;32.908;2022-07-05T00:57:54;6.63;;;4.40;;
72584;SDS011;60618;40.084;32.908;2022-07-05T01:00:21;9.63;;;5.38;;
72584;SDS011;60618;40.084;32.908;2022-07-05T01:02:48;9.20;;;5.00;;
72584;SDS011;60618;40.084;32.908;2022-07-05T01:05:15;7.63;;;4.63;;
72584;SDS011;60618;40.084;32.908;2022-07-05T01:07:42;7.95;;;5.05;;
72584;SDS011;60618;40.084;32.908;2022-07-05T01:10:10;8.32;;;4.80;;
72584;SDS011;60618;40.084;32.908;2022-07-05T01:12:39;7.97;;;4.88;;
72584;SDS011;60618;40.084;32.908;2022-07-05T01:15:07;8.88;;;5.03;;
72584;SDS011;60618;40.084;32.908;2022-07-05T01:17:35;8.07;;;5.13;;
72584;SDS011;60618;40.084;32.908;2022-07-05T01:20:06;8.43;;;4.70;;
72584;SDS011;60618;40.084;32.908;2022-07-05T01:23:16;8.68;;;4.72;;
72584;SDS011;60618;40.084;32.908;2022-07-05T01:25:24;9.77;;;5.13;;
72584;SDS011;60618;40.084;32.908;2022-07-05T01:27:53;9.73;;;5.18;;
72584;SDS011;60618;40.084;32.908;2022-07-05T01:30:22;7.67;;;4.73;;
72584;SDS011;60618;40.084;32.908;2022-07-05T01:32:49;7.55;;;4.85;;
72584;SDS011;60618;40.084;32.908;2022-07-05T01:35:16;7.10;;;4.68;;
72584;SDS011;60618;40.084;32.908;2022-07-05T01:37:44;7.78;;;4.90;;
72584;SDS011;60618;40.084;32.908;2022-07-05T01:40:11;8.27;;;4.95;;
72584;SDS011;60618;40.084;32.908;2022-07-05T01:42:39;8.23;;;4.83;;
72584;SDS011;60618;40.084;32.908;2022-07-05T01:45:06;7.22;;;4.55;;
72584;SDS011;60618;40.084;32.908;2022-07-05T01:47:36;8.07;;;4.75;;
72584;SDS011;60618;40.084;32.908;2022-07-05T01:50:09;7.13;;;4.70;;
72584;SDS011;60618;40.084;32.908;2022-07-05T01:52:38;7.63;;;4.72;;
72584;SDS011;60618;40.084;32.908;2022-07-05T01:55:10;8.50;;;5.00;;
72584;SDS011;60618;40.084;32.908;2022-07-05T01:57:37;8.85;;;4.68;;
72584;SDS011;60618;40.084;32.908;2022-07-05T02:00:05;11.55;;;4.82;;
72584;SDS011;60618;40.084;32.908;2022-07-05T02:02:32;8.82;;;4.93;;
72584;SDS011;60618;40.084;32.908;2022-07-05T02:04:59;7.18;;;4.50;;
72584;SDS011;60618;40.084;32.908;2022-07-05T02:07:26;7.53;;;4.67;;
72584;SDS011;60618;40.084;32.908;2022-07-05T02:09:53;7.85;;;4.72;;
72584;SDS011;60618;40.084;32.908;2022-07-05T02:12:20;7.40;;;4.60;;
72584;SDS011;60618;40.084;32.908;2022-07-05T02:14:46;7.32;;;4.50;;
72584;SDS011;60618;40.084;32.908;2022-07-05T02:17:13;8.25;;;4.45;;
72584;SDS011;60618;40.084;32.908;2022-07-05T02:19:40;8.07;;;4.80;;
72584;SDS011;60618;40.084;32.908;2022-07-05T02:22:07;8.52;;;4.95;;
72584;SDS011;60618;40.084;32.908;2022-07-05T02:24:34;7.65;;;4.63;;
72584;SDS011;60618;40.084;32.908;2022-07-05T02:27:01;6.57;;;4.50;;
72584;SDS011;60618;40.084;32.908;2022-07-05T02:29:28;8.05;;;4.60;;
72584;SDS011;60618;40.084;32.908;2022-07-05T02:31:55;8.67;;;4.60;;
72584;SDS011;60618;40.084;32.908;2022-07-05T02:34:22;6.57;;;4.35;;
72584;SDS011;60618;40.084;32.908;2022-07-05T02:36:48;8.30;;;4.47;;
72584;SDS011;60618;40.084;32.908;2022-07-05T02:39:15;7.80;;;4.10;;
72584;SDS011;60618;40.084;32.908;2022-07-05T02:41:42;7.75;;;4.38;;
72584;SDS011;60618;40.084;32.908;2022-07-05T02:44:09;8.40;;;4.80;;
72584;SDS011;60618;40.084;32.908;2022-07-05T02:46:36;8.30;;;4.55;;
72584;SDS011;60618;40.084;32.908;2022-07-05T02:49:03;7.28;;;4.30;;
72584;SDS011;60618;40.084;32.908;2022-07-05T02:51:30;7.57;;;4.10;;
72584;SDS011;60618;40.084;32.908;2022-07-05T02:53:57;9.07;;;4.15;;
72584;SDS011;60618;40.084;32.908;2022-07-05T02:56:24;8.27;;;4.50;;
72584;SDS011;60618;40.084;32.908;2022-07-05T02:58:53;7.22;;;4.40;;
72584;SDS011;60618;40.084;32.908;2022-07-05T03:01:20;8.35;;;4.85;;
72584;SDS011;60618;40.084;32.908;2022-07-05T03:03:47;8.02;;;4.10;;
72584;SDS011;60618;40.084;32.908;2022-07-05T03:06:13;7.40;;;4.68;;
72584;SDS011;60618;40.084;32.908;2022-07-05T03:08:41;7.03;;;3.87;;
72584;SDS011;60618;40.084;32.908;2022-07-05T03:11:08;8.02;;;4.00;;
72584;SDS011;60618;40.084;32.908;2022-07-05T03:13:35;7.70;;;4.03;;
72584;SDS011;60618;40.084;32.908;2022-07-05T03:16:02;8.90;;;4.00;;
72584;SDS011;60618;40.084;32.908;2022-07-05T03:18:29;7.78;;;4.20;;
72584;SDS011;60618;40.084;32.908;2022-07-05T03:20:56;6.47;;;3.70;;
72584;SDS011;60618;40.084;32.908;2022-07-05T03:23:23;7.80;;;4.10;;
72584;SDS011;60618;40.084;32.908;2022-07-05T03:25:49;5.57;;;3.67;;
72584;SDS011;60618;40.084;32.908;2022-07-05T03:28:16;7.32;;;4.10;;
72584;SDS011;60618;40.084;32.908;2022-07-05T03:30:43;7.45;;;3.63;;
72584;SDS011;60618;40.084;32.908;2022-07-05T03:33:10;9.17;;;4.10;;
72584;SDS011;60618;40.084;32.908;2022-07-05T03:35:37;6.18;;;3.80;;
72584;SDS011;60618;40.084;32.908;2022-07-05T03:38:04;7.72;;;3.80;;
72584;SDS011;60618;40.084;32.908;2022-07-05T03:40:31;6.28;;;3.95;;
72584;SDS011;60618;40.084;32.908;2022-07-05T03:42:58;6.30;;;3.53;;
72584;SDS011;60618;40.084;32.908;2022-07-05T03:45:25;6.50;;;3.87;;
72584;SDS011;60618;40.084;32.908;2022-07-05T03:47:52;6.55;;;3.60;;
72584;SDS011;60618;40.084;32.908;2022-07-05T03:50:19;5.82;;;3.60;;
72584;SDS011;60618;40.084;32.908;2022-07-05T03:52:46;6.05;;;3.78;;
72584;SDS011;60618;40.084;32.908;2022-07-05T03:55:13;6.35;;;3.92;;
72584;SDS011;60618;40.084;32.908;2022-07-05T03:57:39;6.53;;;3.73;;
72584;SDS011;60618;40.084;32.908;2022-07-05T04:00:07;7.15;;;3.60;;
72584;SDS011;60618;40.084;32.908;2022-07-05T04:02:34;6.80;;;3.67;;
72584;SDS011;60618;40.084;32.908;2022-07-05T04:05:01;5.88;;;3.15;;
72584;SDS011;60618;40.084;32.908;2022-07-05T04:07:28;5.75;;;3.20;;
72584;SDS011;60618;40.084;32.908;2022-07-05T04:09:55;6.50;;;3.10;;
72584;SDS011;60618;40.084;32.908;2022-07-05T04:12:22;5.82;;;3.28;;
72584;SDS011;60618;40.084;32.908;2022-07-05T04:14:49;6.82;;;3.78;;
72584;SDS011;60618;40.084;32.908;2022-07-05T04:17:16;5.63;;;3.45;;
72584;SDS011;60618;40.084;32.908;2022-07-05T04:19:43;6.35;;;3.30;;
72584;SDS011;60618;40.084;32.908;2022-07-05T04:22:11;6.33;;;3.67;;
72584;SDS011;60618;40.084;32.908;2022-07-05T04:24:38;6.88;;;3.75;;
72584;SDS011;60618;40.084;32.908;2022-07-05T04:27:04;5.72;;;3.25;;
72584;SDS011;60618;40.084;32.908;2022-07-05T04:29:31;5.88;;;3.15;;
72584;SDS011;60618;40.084;32.908;2022-07-05T04:31:58;5.65;;;3.65;;
72584;SDS011;60618;40.084;32.908;2022-07-05T04:34:25;6.00;;;3.40;;
72584;SDS011;60618;40.084;32.908;2022-07-05T04:36:52;5.55;;;3.40;;
72584;SDS011;60618;40.084;32.908;2022-07-05T04:39:19;7.18;;;3.50;;
72584;SDS011;60618;40.084;32.908;2022-07-05T04:41:46;7.03;;;3.65;;
72584;SDS011;60618;40.084;32.908;2022-07-05T04:44:13;5.53;;;3.33;;
72584;SDS011;60618;40.084;32.908;2022-07-05T04:46:39;7.87;;;3.60;;
72584;SDS011;60618;40.084;32.908;2022-07-05T04:49:06;5.97;;;3.20;;
72584;SDS011;60618;40.084;32.908;2022-07-05T04:51:33;6.85;;;3.10;;
72584;SDS011;60618;40.084;32.908;2022-07-05T04:54:00;6.65;;;3.50;;
72584;SDS011;60618;40.084;32.908;2022-07-05T04:56:30;6.53;;;3.83;;
72584;SDS011;60618;40.084;32.908;2022-07-05T04:58:57;7.27;;;3.77;;
72584;SDS011;60618;40.084;32.908;2022-07-05T05:01:24;6.78;;;3.90;;
72584;SDS011;60618;40.084;32.908;2022-07-05T05:03:51;7.30;;;3.88;;
72584;SDS011;60618;40.084;32.908;2022-07-05T05:06:18;6.72;;;4.05;;
72584;SDS011;60618;40.084;32.908;2022-07-05T05:08:44;8.07;;;4.10;;
72584;SDS011;60618;40.084;32.908;2022-07-05T05:11:11;8.57;;;3.90;;
72584;SDS011;60618;40.084;32.908;2022-07-05T05:13:38;7.07;;;4.07;;
72584;SDS011;60618;40.084;32.908;2022-07-05T05:16:05;8.30;;;4.03;;
72584;SDS011;60618;40.084;32.908;2022-07-05T05:18:32;7.22;;;4.20;;
72584;SDS011;60618;40.084;32.908;2022-07-05T05:20:59;8.68;;;3.90;;
72584;SDS011;60618;40.084;32.908;2022-07-05T05:23:26;7.47;;;3.80;;
72584;SDS011;60618;40.084;32.908;2022-07-05T05:25:53;9.25;;;4.43;;
72584;SDS011;60618;40.084;32.908;2022-07-05T05:28:19;7.47;;;4.40;;
72584;SDS011;60618;40.084;32.908;2022-07-05T05:30:46;10.10;;;4.85;;
72584;SDS011;60618;40.084;32.908;2022-07-05T05:33:13;6.53;;;4.53;;
72584;SDS011;60618;40.084;32.908;2022-07-05T05:35:40;7.30;;;4.37;;
72584;SDS011;60618;40.084;32.908;2022-07-05T05:38:07;7.50;;;4.45;;
72584;SDS011;60618;40.084;32.908;2022-07-05T05:40:34;8.43;;;4.93;;
72584;SDS011;60618;40.084;32.908;2022-07-05T05:43:01;8.45;;;4.25;;
72584;SDS011;60618;40.084;32.908;2022-07-05T05:45:28;7.32;;;3.90;;
72584;SDS011;60618;40.084;32.908;2022-07-05T05:47:55;8.17;;;4.87;;
72584;SDS011;60618;40.084;32.908;2022-07-05T05:50:24;7.20;;;4.40;;
72584;SDS011;60618;40.084;32.908;2022-07-05T05:52:56;7.55;;;4.20;;
72584;SDS011;60618;40.084;32.908;2022-07-05T05:55:23;7.45;;;4.20;;
72584;SDS011;60618;40.084;32.908;2022-07-05T05:57:52;7.65;;;3.72;;
72584;SDS011;60618;40.084;32.908;2022-07-05T06:00:20;9.80;;;4.30;;
72584;SDS011;60618;40.084;32.908;2022-07-05T06:02:48;7.18;;;3.90;;
72584;SDS011;60618;40.084;32.908;2022-07-05T06:05:17;5.97;;;4.00;;
72584;SDS011;60618;40.084;32.908;2022-07-05T06:10:19;7.82;;;4.00;;
72584;SDS011;60618;40.084;32.908;2022-07-05T06:12:48;7.27;;;4.13;;
72584;SDS011;60618;40.084;32.908;2022-07-05T06:15:17;10.23;;;4.28;;
72584;SDS011;60618;40.084;32.908;2022-07-05T06:17:44;6.00;;;3.80;;
72584;SDS011;60618;40.084;32.908;2022-07-05T06:20:13;6.47;;;3.75;;
72584;SDS011;60618;40.084;32.908;2022-07-05T06:22:42;7.00;;;4.10;;
72584;SDS011;60618;40.084;32.908;2022-07-05T06:25:09;6.73;;;4.00;;
72584;SDS011;60618;40.084;32.908;2022-07-05T06:30:21;6.88;;;3.70;;
72584;SDS011;60618;40.084;32.908;2022-07-05T06:32:49;7.07;;;3.72;;
72584;SDS011;60618;40.084;32.908;2022-07-05T06:35:17;9.88;;;4.13;;
72584;SDS011;60618;40.084;32.908;2022-07-05T06:37:47;6.47;;;3.70;;
72584;SDS011;60618;40.084;32.908;2022-07-05T06:40:21;8.93;;;3.70;;
72584;SDS011;60618;40.084;32.908;2022-07-05T06:42:49;9.52;;;3.70;;
72584;SDS011;60618;40.084;32.908;2022-07-05T06:45:17;7.30;;;3.33;;
72584;SDS011;60618;40.084;32.908;2022-07-05T06:47:44;6.93;;;3.40;;
72584;SDS011;60618;40.084;32.908;2022-07-05T06:50:13;7.27;;;2.70;;
72584;SDS011;60618;40.084;32.908;2022-07-05T06:52:40;4.75;;;2.58;;
72584;SDS011;60618;40.084;32.908;2022-07-05T06:55:07;4.75;;;2.30;;
72584;SDS011;60618;40.084;32.908;2022-07-05T06:57:34;5.20;;;2.38;;
72584;SDS011;60618;40.084;32.908;2022-07-05T07:00:02;5.50;;;2.53;;
72584;SDS011;60618;40.084;32.908;2022-07-05T07:02:30;6.33;;;2.30;;
72584;SDS011;60618;40.084;32.908;2022-07-05T07:04:57;6.78;;;2.20;;
72584;SDS011;60618;40.084;32.908;2022-07-05T07:07:42;4.68;;;2.40;;
72584;SDS011;60618;40.084;32.908;2022-07-05T07:10:08;4.30;;;2.20;;
72584;SDS011;60618;40.084;32.908;2022-07-05T07:12:36;6.03;;;2.70;;
72584;SDS011;60618;40.084;32.908;2022-07-05T07:15:03;7.17;;;2.53;;
72584;SDS011;60618;40.084;32.908;2022-07-05T07:17:30;5.70;;;3.03;;
72584;SDS011;60618;40.084;32.908;2022-07-05T07:19:57;7.93;;;2.65;;
72584;SDS011;60618;40.084;32.908;2022-07-05T07:22:23;5.63;;;2.60;;
72584;SDS011;60618;40.084;32.908;2022-07-05T07:24:50;5.40;;;2.50;;
72584;SDS011;60618;40.084;32.908;2022-07-05T07:27:17;4.87;;;2.50;;
72584;SDS011;60618;40.084;32.908;2022-07-05T07:29:44;6.18;;;2.65;;
72584;SDS011;60618;40.084;32.908;2022-07-05T07:32:12;5.63;;;2.80;;
72584;SDS011;60618;40.084;32.908;2022-07-05T07:34:39;5.93;;;2.47;;
72584;SDS011;60618;40.084;32.908;2022-07-05T07:37:06;4.38;;;2.50;;
72584;SDS011;60618;40.084;32.908;2022-07-05T07:39:33;5.23;;;2.63;;
72584;SDS011;60618;40.084;32.908;2022-07-05T07:42:01;6.35;;;2.92;;
72584;SDS011;60618;40.084;32.908;2022-07-05T07:44:27;7.18;;;3.30;;
72584;SDS011;60618;40.084;32.908;2022-07-05T07:46:54;6.30;;;2.58;;
72584;SDS011;60618;40.084;32.908;2022-07-05T07:49:21;7.32;;;3.00;;
72584;SDS011;60618;40.084;32.908;2022-07-05T07:51:48;5.90;;;2.43;;
72584;SDS011;60618;40.084;32.908;2022-07-05T07:54:16;5.93;;;2.70;;
72584;SDS011;60618;40.084;32.908;2022-07-05T07:56:44;6.45;;;2.30;;
72584;SDS011;60618;40.084;32.908;2022-07-05T07:59:11;6.13;;;2.47;;
72584;SDS011;60618;40.084;32.908;2022-07-05T08:01:38;9.07;;;3.28;;
72584;SDS011;60618;40.084;32.908;2022-07-05T08:04:10;10.37;;;2.93;;
72584;SDS011;60618;40.084;32.908;2022-07-05T08:06:38;7.82;;;2.60;;
72584;SDS011;60618;40.084;32.908;2022-07-05T08:09:05;4.40;;;2.20;;
72584;SDS011;60618;40.084;32.908;2022-07-05T08:11:40;8.55;;;2.70;;
72584;SDS011;60618;40.084;32.908;2022-07-05T08:14:07;7.50;;;2.30;;
72584;SDS011;60618;40.084;32.908;2022-07-05T08:16:34;4.57;;;2.30;;
72584;SDS011;60618;40.084;32.908;2022-07-05T08:19:01;4.75;;;2.50;;
72584;SDS011;60618;40.084;32.908;2022-07-05T08:21:28;5.65;;;2.47;;
72584;SDS011;60618;40.084;32.908;2022-07-05T08:23:55;6.13;;;2.40;;
72584;SDS011;60618;40.084;32.908;2022-07-05T08:26:22;4.68;;;2.08;;
72584;SDS011;60618;40.084;32.908;2022-07-05T08:28:49;4.80;;;2.20;;
72584;SDS011;60618;40.084;32.908;2022-07-05T08:34:14;4.30;;;2.08;;
72584;SDS011;60618;40.084;32.908;2022-07-05T08:36:43;5.70;;;2.30;;
72584;SDS011;60618;40.084;32.908;2022-07-05T08:39:10;4.57;;;1.95;;
72584;SDS011;60618;40.084;32.908;2022-07-05T08:41:38;4.37;;;2.20;;
72584;SDS011;60618;40.084;32.908;2022-07-05T08:44:07;4.97;;;2.00;;
72584;SDS011;60618;40.084;32.908;2022-07-05T08:46:37;4.95;;;1.70;;
72584;SDS011;60618;40.084;32.908;2022-07-05T08:49:07;8.00;;;4.53;;
72584;SDS011;60618;40.084;32.908;2022-07-05T08:51:38;5.03;;;2.28;;
72584;SDS011;60618;40.084;32.908;2022-07-05T08:54:07;6.87;;;2.30;;
72584;SDS011;60618;40.084;32.908;2022-07-05T08:56:36;4.13;;;2.00;;
72584;SDS011;60618;40.084;32.908;2022-07-05T08:59:23;5.80;;;2.13;;
72584;SDS011;60618;40.084;32.908;2022-07-05T09:01:50;5.03;;;1.90;;
72584;SDS011;60618;40.084;32.908;2022-07-05T09:04:18;4.72;;;1.90;;
72584;SDS011;60618;40.084;32.908;2022-07-05T09:06:47;4.90;;;1.90;;
72584;SDS011;60618;40.084;32.908;2022-07-05T09:09:16;8.63;;;2.50;;
72584;SDS011;60618;40.084;32.908;2022-07-05T09:11:44;4.75;;;2.05;;
72584;SDS011;60618;40.084;32.908;2022-07-05T09:14:32;4.18;;;1.83;;
72584;SDS011;60618;40.084;32.908;2022-07-05T09:16:59;4.18;;;2.13;;
72584;SDS011;60618;40.084;32.908;2022-07-05T09:19:26;6.37;;;2.40;;
72584;SDS011;60618;40.084;32.908;2022-07-05T09:22:04;5.22;;;2.28;;
72584;SDS011;60618;40.084;32.908;2022-07-05T09:24:32;5.32;;;2.00;;
72584;SDS011;60618;40.084;32.908;2022-07-05T09:27:09;4.72;;;1.92;;
72584;SDS011;60618;40.084;32.908;2022-07-05T09:29:37;4.03;;;2.00;;
72584;SDS011;60618;40.084;32.908;2022-07-05T09:32:22;4.97;;;2.00;;
72584;SDS011;60618;40.084;32.908;2022-07-05T09:34:49;4.60;;;1.90;;
72584;SDS011;60618;40.084;32.908;2022-07-05T09:37:16;3.88;;;1.70;;
72584;SDS011;60618;40.084;32.908;2022-07-05T09:39:43;4.47;;;1.77;;
72584;SDS011;60618;40.084;32.908;2022-07-05T09:44:46;4.23;;;2.07;;
72584;SDS011;60618;40.084;32.908;2022-07-05T09:47:15;5.15;;;2.00;;
72584;SDS011;60618;40.084;32.908;2022-07-05T09:49:44;3.70;;;1.70;;
72584;SDS011;60618;40.084;32.908;2022-07-05T09:52:34;4.35;;;1.75;;
72584;SDS011;60618;40.084;32.908;2022-07-05T09:55:12;4.68;;;2.00;;
72584;SDS011;60618;40.084;32.908;2022-07-05T09:57:45;5.43;;;2.00;;
72584;SDS011;60618;40.084;32.908;2022-07-05T10:00:14;4.68;;;1.90;;
72584;SDS011;60618;40.084;32.908;2022-07-05T10:02:53;4.22;;;1.70;;
72584;SDS011;60618;40.084;32.908;2022-07-05T10:05:25;5.78;;;2.00;;
72584;SDS011;60618;40.084;32.908;2022-07-05T10:07:57;4.55;;;2.00;;
72584;SDS011;60618;40.084;32.908;2022-07-05T10:10:28;5.60;;;2.23;;
72584;SDS011;60618;40.084;32.908;2022-07-05T10:12:56;4.50;;;1.80;;
72584;SDS011;60618;40.084;32.908;2022-07-05T10:15:29;5.63;;;2.10;;
72584;SDS011;60618;40.084;32.908;2022-07-05T10:18:13;4.35;;;1.80;;
72584;SDS011;60618;40.084;32.908;2022-07-05T10:20:48;4.15;;;1.80;;
72584;SDS011;60618;40.084;32.908;2022-07-05T10:23:16;5.17;;;1.63;;
72584;SDS011;60618;40.084;32.908;2022-07-05T10:25:45;4.03;;;1.88;;
72584;SDS011;60618;40.084;32.908;2022-07-05T10:28:13;5.00;;;2.08;;
72584;SDS011;60618;40.084;32.908;2022-07-05T10:30:43;4.18;;;1.77;;
72584;SDS011;60618;40.084;32.908;2022-07-05T10:33:11;4.47;;;1.83;;
72584;SDS011;60618;40.084;32.908;2022-07-05T10:35:39;4.73;;;1.80;;
72584;SDS011;60618;40.084;32.908;2022-07-05T10:38:09;17.02;;;2.85;;
72584;SDS011;60618;40.084;32.908;2022-07-05T10:40:37;6.07;;;1.88;;
72584;SDS011;60618;40.084;32.908;2022-07-05T10:43:07;5.20;;;1.60;;
72584;SDS011;60618;40.084;32.908;2022-07-05T10:45:35;4.68;;;1.70;;
72584;SDS011;60618;40.084;32.908;2022-07-05T10:50:55;4.57;;;1.88;;
72584;SDS011;60618;40.084;32.908;2022-07-05T10:53:27;3.38;;;1.58;;
72584;SDS011;60618;40.084;32.908;2022-07-05T11:03:42;4.07;;;1.90;;
72584;SDS011;60618;40.084;32.908;2022-07-05T11:06:18;5.13;;;2.20;;
72584;SDS011;60618;40.084;32.908;2022-07-05T11:11:31;6.05;;;2.22;;
72584;SDS011;60618;40.084;32.908;2022-07-05T11:16:47;7.72;;;1.90;;
72584;SDS011;60618;40.084;32.908;2022-07-05T11:19:16;4.88;;;1.85;;
72584;SDS011;60618;40.084;32.908;2022-07-05T11:22:00;4.95;;;1.77;;
72584;SDS011;60618;40.084;32.908;2022-07-05T11:24:35;4.22;;;1.80;;
72584;SDS011;60618;40.084;32.908;2022-07-05T11:27:09;4.97;;;2.07;;
72584;SDS011;60618;40.084;32.908;2022-07-05T11:29:44;6.10;;;2.00;;
72584;SDS011;60618;40.084;32.908;2022-07-05T11:32:13;5.07;;;2.10;;
72584;SDS011;60618;40.084;32.908;2022-07-05T11:34:42;6.68;;;2.17;;
72584;SDS011;60618;40.084;32.908;2022-07-05T11:42:33;3.33;;;1.55;;
72584;SDS011;60618;40.084;32.908;2022-07-05T11:45:00;4.05;;;1.80;;
72584;SDS011;60618;40.084;32.908;2022-07-05T11:47:33;6.97;;;2.13;;
72584;SDS011;60618;40.084;32.908;2022-07-05T11:50:08;7.65;;;2.20;;
72584;SDS011;60618;40.084;32.908;2022-07-05T11:52:37;4.83;;;1.80;;
72584;SDS011;60618;40.084;32.908;2022-07-05T11:55:06;9.75;;;2.10;;
72584;SDS011;60618;40.084;32.908;2022-07-05T11:57:35;6.38;;;1.90;;
72584;SDS011;60618;40.084;32.908;2022-07-05T12:00:05;4.72;;;1.40;;
72584;SDS011;60618;40.084;32.908;2022-07-05T12:02:32;4.18;;;2.05;;
72584;SDS011;60618;40.084;32.908;2022-07-05T12:05:10;11.70;;;2.20;;
72584;SDS011;60618;40.084;32.908;2022-07-05T12:07:37;3.50;;;1.38;;
72584;SDS011;60618;40.084;32.908;2022-07-05T12:10:04;5.63;;;1.63;;
72584;SDS011;60618;40.084;32.908;2022-07-05T12:12:31;3.47;;;1.50;;
72584;SDS011;60618;40.084;32.908;2022-07-05T12:14:58;5.28;;;1.48;;
72584;SDS011;60618;40.084;32.908;2022-07-05T12:17:26;4.60;;;1.60;;
72584;SDS011;60618;40.084;32.908;2022-07-05T12:19:53;4.07;;;1.60;;
72584;SDS011;60618;40.084;32.908;2022-07-05T12:22:31;4.38;;;1.80;;
72584;SDS011;60618;40.084;32.908;2022-07-05T12:25:00;4.28;;;1.90;;
72584;SDS011;60618;40.084;32.908;2022-07-05T12:27:28;4.05;;;1.60;;
72584;SDS011;60618;40.084;32.908;2022-07-05T12:29:57;6.17;;;2.00;;
72584;SDS011;60618;40.084;32.908;2022-07-05T12:32:24;4.18;;;2.00;;
72584;SDS011;60618;40.084;32.908;2022-07-05T12:34:52;4.20;;;1.92;;
72584;SDS011;60618;40.084;32.908;2022-07-05T12:37:22;3.88;;;1.67;;
72584;SDS011;60618;40.084;32.908;2022-07-05T12:39:50;5.10;;;2.00;;
72584;SDS011;60618;40.084;32.908;2022-07-05T12:42:38;5.23;;;2.60;;
72584;SDS011;60618;40.084;32.908;2022-07-05T12:45:09;3.90;;;2.20;;
72584;SDS011;60618;40.084;32.908;2022-07-05T12:47:50;4.97;;;1.80;;
72584;SDS011;60618;40.084;32.908;2022-07-05T12:50:19;4.78;;;1.90;;
72584;SDS011;60618;40.084;32.908;2022-07-05T12:53:03;3.83;;;1.70;;
72584;SDS011;60618;40.084;32.908;2022-07-05T12:55:34;4.40;;;1.87;;
72584;SDS011;60618;40.084;32.908;2022-07-05T12:58:03;4.30;;;2.00;;
72584;SDS011;60618;40.084;32.908;2022-07-05T13:00:29;4.72;;;2.10;;
72584;SDS011;60618;40.084;32.908;2022-07-05T13:02:56;4.93;;;1.90;;
72584;SDS011;60618;40.084;32.908;2022-07-05T13:05:26;3.60;;;1.90;;
72584;SDS011;60618;40.084;32.908;2022-07-05T13:07:53;4.07;;;1.83;;
72584;SDS011;60618;40.084;32.908;2022-07-05T13:10:25;5.35;;;1.90;;
72584;SDS011;60618;40.084;32.908;2022-07-05T13:12:53;5.00;;;1.80;;
72584;SDS011;60618;40.084;32.908;2022-07-05T13:15:20;3.55;;;1.92;;
72584;SDS011;60618;40.084;32.908;2022-07-05T13:17:47;4.13;;;1.83;;
72584;SDS011;60618;40.084;32.908;2022-07-05T13:20:15;4.00;;;1.80;;
72584;SDS011;60618;40.084;32.908;2022-07-05T13:22:43;4.38;;;2.00;;
72584;SDS011;60618;40.084;32.908;2022-07-05T13:25:11;4.22;;;2.10;;
72584;SDS011;60618;40.084;32.908;2022-07-05T13:27:38;5.50;;;2.40;;
72584;SDS011;60618;40.084;32.908;2022-07-05T13:30:06;5.68;;;1.80;;
72584;SDS011;60618;40.084;32.908;2022-07-05T13:32:34;4.20;;;1.60;;
72584;SDS011;60618;40.084;32.908;2022-07-05T13:35:01;3.15;;;1.40;;
72584;SDS011;60618;40.084;32.908;2022-07-05T13:37:28;5.43;;;2.00;;
72584;SDS011;60618;40.084;32.908;2022-07-05T13:39:55;7.30;;;2.20;;
72584;SDS011;60618;40.084;32.908;2022-07-05T13:42:22;9.02;;;2.50;;
72584;SDS011;60618;40.084;32.908;2022-07-05T13:44:49;5.70;;;2.90;;
72584;SDS011;60618;40.084;32.908;2022-07-05T13:47:16;6.43;;;2.20;;
72584;SDS011;60618;40.084;32.908;2022-07-05T13:49:43;8.27;;;2.05;;
72584;SDS011;60618;40.084;32.908;2022-07-05T13:52:10;6.20;;;2.10;;
72584;SDS011;60618;40.084;32.908;2022-07-05T13:54:37;4.65;;;1.75;;
72584;SDS011;60618;40.084;32.908;2022-07-05T13:57:05;4.60;;;1.80;;
72584;SDS011;60618;40.084;32.908;2022-07-05T13:59:32;6.97;;;2.00;;
72584;SDS011;60618;40.084;32.908;2022-07-05T14:01:58;4.47;;;2.00;;
72584;SDS011;60618;40.084;32.908;2022-07-05T14:04:26;16.17;;;2.13;;
72584;SDS011;60618;40.084;32.908;2022-07-05T14:06:53;4.60;;;1.60;;
72584;SDS011;60618;40.084;32.908;2022-07-05T14:09:19;6.67;;;1.93;;
72584;SDS011;60618;40.084;32.908;2022-07-05T14:11:53;4.80;;;1.90;;
72584;SDS011;60618;40.084;32.908;2022-07-05T14:14:20;4.13;;;1.77;;
72584;SDS011;60618;40.084;32.908;2022-07-05T14:16:47;8.77;;;2.38;;
72584;SDS011;60618;40.084;32.908;2022-07-05T14:19:14;6.15;;;1.95;;
72584;SDS011;60618;40.084;32.908;2022-07-05T14:21:41;4.63;;;1.73;;
72584;SDS011;60618;40.084;32.908;2022-07-05T14:24:08;4.13;;;1.80;;
72584;SDS011;60618;40.084;32.908;2022-07-05T14:26:35;4.07;;;1.70;;
72584;SDS011;60618;40.084;32.908;2022-07-05T14:29:02;6.20;;;1.95;;
72584;SDS011;60618;40.084;32.908;2022-07-05T14:31:29;4.07;;;2.00;;
72584;SDS011;60618;40.084;32.908;2022-07-05T14:33:57;5.00;;;2.10;;
72584;SDS011;60618;40.084;32.908;2022-07-05T14:36:24;5.40;;;2.20;;
72584;SDS011;60618;40.084;32.908;2022-07-05T14:38:51;5.10;;;1.95;;
72584;SDS011;60618;40.084;32.908;2022-07-05T14:41:18;5.35;;;2.00;;
72584;SDS011;60618;40.084;32.908;2022-07-05T14:43:45;5.65;;;1.90;;
72584;SDS011;60618;40.084;32.908;2022-07-05T14:46:12;5.80;;;2.00;;
72584;SDS011;60618;40.084;32.908;2022-07-05T14:48:39;5.07;;;2.00;;
72584;SDS011;60618;40.084;32.908;2022-07-05T14:51:05;6.35;;;2.08;;
72584;SDS011;60618;40.084;32.908;2022-07-05T14:53:32;5.07;;;2.20;;
72584;SDS011;60618;40.084;32.908;2022-07-05T14:55:59;4.80;;;2.00;;
72584;SDS011;60618;40.084;32.908;2022-07-05T14:58:26;6.17;;;2.20;;
72584;SDS011;60618;40.084;32.908;2022-07-05T15:00:53;5.13;;;2.00;;
72584;SDS011;60618;40.084;32.908;2022-07-05T15:03:20;4.95;;;2.17;;
72584;SDS011;60618;40.084;32.908;2022-07-05T15:05:47;5.43;;;2.10;;
72584;SDS011;60618;40.084;32.908;2022-07-05T15:08:15;6.70;;;1.98;;
72584;SDS011;60618;40.084;32.908;2022-07-05T15:10:42;7.23;;;2.20;;
72584;SDS011;60618;40.084;32.908;2022-07-05T15:13:08;7.20;;;2.20;;